Time;durP1;ratioP1;P1;durP2;ratioP2;P2;SDS_P1;SDS_P2;PMS_P1;PMS_P2;Temp;Humidity;BMP_temperature;BMP_pressure;BME280_temperature;BME280_humidity;BME280_pressure;Samples;Min_cycle;Max_cycle;Signal;HPM_P1;HPM_P2
2022/03/24 11:22:23;;;;;;;8.82;5.47;;;;;;;20.31;33.33;101588.91;10197377;27;43077;-64
2022/03/24 11:27:17;;;;;;;10.38;5.38;;;;;;;20.47;32.80;101596.03;10195753;27;66185;-64
2022/03/24 11:32:09;;;;;;;5.97;4.82;;;;;;;20.53;32.80;101581.94;10195382;27;65622;-64
2022/03/24 11:37:01;;;;;;;6.32;4.35;;;;;;;20.61;32.64;101577.75;10195716;27;66139;-64
2022/03/24 11:41:55;;;;;;;6.82;4.03;;;;;;;20.66;32.65;101574.16;10194308;27;66511;-62
2022/03/24 11:46:48;;;;;;;10.07;4.35;;;;;;;20.65;32.38;101556.81;10194170;27;65591;-63
2022/03/24 11:51:40;;;;;;;8.18;3.85;;;;;;;20.65;32.49;101558.75;10193714;27;65612;-64
2022/03/24 11:56:33;;;;;;;9.45;3.88;;;;;;;20.73;32.63;101545.19;10180399;27;66418;-71
2022/03/24 12:01:28;;;;;;;7.03;4.10;;;;;;;20.82;32.52;101542.63;10186008;27;65228;-71
2022/03/24 12:06:20;;;;;;;4.95;3.80;;;;;;;20.87;32.31;101537.06;10193387;27;66293;-69
2022/03/24 12:11:39;;;;;;;5.90;3.45;;;;;;;20.84;32.53;101527.44;10176221;27;65317;-70
2022/03/24 12:16:32;;;;;;;6.55;4.07;;;;;;;20.82;32.63;101524.13;10180038;27;65606;-64
2022/03/24 12:21:25;;;;;;;5.07;3.67;;;;;;;20.85;32.44;101522.75;10190882;27;65803;-65
2022/03/24 12:26:17;;;;;;;4.75;3.75;;;;;;;20.84;32.51;101515.59;10177827;27;65614;-65
2022/03/24 12:31:10;;;;;;;4.55;3.60;;;;;;;20.85;32.39;101509.78;10182637;27;66732;-63
2022/03/24 12:36:05;;;;;;;5.13;4.00;;;;;;;20.84;32.51;101505.38;10164521;27;65635;-64
2022/03/24 12:41:20;;;;;;;4.95;4.00;;;;;;;20.82;32.52;101495.78;10162322;27;66407;-65
2022/03/24 12:46:18;;;;;;;8.32;6.15;;;;;;;20.79;32.35;101494.41;10139539;27;66368;-65
2022/03/24 12:51:18;;;;;;;6.75;4.90;;;;;;;20.82;32.45;101488.31;10169243;28;66323;-63
2022/03/24 12:56:27;;;;;;;13.18;7.20;;;;;;;20.72;32.51;101484.81;10157443;28;65418;-64
2022/03/24 13:01:19;;;;;;;27.67;19.42;;;;;;;20.56;30.31;101475.03;10156527;28;66355;-64
2022/03/24 13:06:11;;;;;;;25.42;20.42;;;;;;;20.56;29.93;101473.09;10155631;28;64649;-64
2022/03/24 13:11:07;;;;;;;25.52;19.70;;;;;;;20.56;29.94;101472.28;10164055;27;65594;-64
2022/03/24 13:15:59;;;;;;;23.55;18.83;;;;;;;20.58;29.78;101459.03;10166869;27;66469;-63
2022/03/24 13:20:53;;;;;;;20.02;16.95;;;;;;;20.58;29.79;101457.13;10169138;27;66522;-64
2022/03/24 13:25:46;;;;;;;25.45;19.90;;;;;;;20.56;29.26;101453.81;10166574;27;66288;-64
2022/03/24 13:30:40;;;;;;;27.13;19.55;;;;;;;20.53;28.94;101446.13;10169504;27;65649;-64
2022/03/24 13:35:34;;;;;;;22.08;16.98;;;;;;;20.56;29.19;101437.28;10168897;27;65611;-65
2022/03/24 13:40:28;;;;;;;24.30;16.90;;;;;;;20.54;29.01;101436.75;10167231;27;65854;-66
2022/03/24 13:45:20;;;;;;;23.15;17.85;;;;;;;20.52;28.69;101431.53;10164256;28;65239;-66
2022/03/24 13:50:17;;;;;;;28.60;19.05;;;;;;;20.52;28.49;101423.28;10157918;28;65426;-66
2022/03/24 13:55:14;;;;;;;25.13;17.08;;;;;;;20.59;28.74;101416.59;10158689;27;65504;-65
2022/03/24 14:00:07;;;;;;;15.68;13.82;;;;;;;20.59;29.18;101417.44;10145638;28;66551;-65
2022/03/24 14:05:04;;;;;;;18.92;13.95;;;;;;;20.61;29.08;101415.19;10155350;27;66137;-69
2022/03/24 14:09:58;;;;;;;16.90;12.98;;;;;;;20.68;29.11;101407.41;10149710;28;65452;-65
2022/03/24 14:14:50;;;;;;;16.85;11.63;;;;;;;20.70;29.38;101401.59;10154429;27;66543;-65
2022/03/24 14:19:54;;;;;;;11.98;10.18;;;;;;;20.66;29.47;101393.13;10160966;27;66282;-64
2022/03/24 14:24:47;;;;;;;12.88;9.75;;;;;;;20.70;29.67;101399.69;10164133;28;65719;-65
2022/03/24 14:29:41;;;;;;;10.70;9.05;;;;;;;20.67;29.74;101394.75;10165251;27;66373;-65
2022/03/24 14:34:34;;;;;;;11.40;8.63;;;;;;;20.66;29.82;101384.03;10158962;27;65625;-65
2022/03/24 14:39:26;;;;;;;10.15;8.10;;;;;;;20.65;29.82;101374.94;10158220;27;66624;-66
2022/03/24 14:44:18;;;;;;;9.45;7.03;;;;;;;20.64;29.91;101369.72;10131162;27;66015;-64
2022/03/24 14:49:12;;;;;;;10.68;8.35;;;;;;;20.64;29.97;101367.78;10161063;28;66319;-65
2022/03/24 14:54:06;;;;;;;10.70;8.35;;;;;;;20.62;29.94;101361.72;10153218;27;65704;-64
2022/03/24 14:58:58;;;;;;;12.50;7.25;;;;;;;20.64;29.93;101358.69;10165905;27;66238;-65
2022/03/24 15:04:05;;;;;;;9.23;7.82;;;;;;;20.63;29.74;101357.03;10164953;27;65629;-64
2022/03/24 15:08:59;;;;;;;9.57;7.88;;;;;;;20.69;30.11;101347.59;10155578;28;65451;-69
2022/03/24 15:19:00;;;;;;;11.45;7.72;;;;;;;20.67;30.05;101342.41;10158220;28;66509;-65
2022/03/24 15:23:58;;;;;;;9.98;7.88;;;;;;;20.64;30.14;101336.63;10161472;27;66404;-64
2022/03/24 15:28:50;;;;;;;9.68;7.15;;;;;;;20.68;29.97;101337.69;10158276;27;66345;-65
2022/03/24 15:33:42;;;;;;;8.75;7.85;;;;;;;20.58;30.07;101332.31;10164209;27;65647;-65
2022/03/24 15:38:34;;;;;;;9.02;6.82;;;;;;;20.57;30.07;101333.41;10164266;27;66208;-65
2022/03/24 15:43:28;;;;;;;8.32;7.05;;;;;;;20.72;30.21;101334.06;10158543;27;65587;-71
2022/03/24 15:48:20;;;;;;;9.65;7.05;;;;;;;20.80;30.34;101332.63;10151475;28;65558;-70
2022/03/24 15:53:12;;;;;;;11.75;6.60;;;;;;;20.83;30.38;101343.03;10164220;27;66347;-71
2022/03/24 15:58:07;;;;;;;8.75;6.93;;;;;;;20.82;30.50;101342.22;10164357;27;66335;-70
2022/03/24 16:03:00;;;;;;;7.03;6.13;;;;;;;20.86;30.54;101342.47;10164390;27;64454;-70
2022/03/24 16:07:52;;;;;;;10.52;6.45;;;;;;;20.89;30.57;101330.88;10169132;27;66372;-71
2022/03/24 16:12:45;;;;;;;8.13;6.13;;;;;;;20.86;30.61;101332.25;10170995;28;64388;-71
2022/03/24 16:17:37;;;;;;;10.05;6.10;;;;;;;20.89;30.72;101334.44;10171947;27;65703;-72
2022/03/24 16:22:30;;;;;;;10.38;6.13;;;;;;;20.91;30.68;101340.47;10171263;27;66552;-69
2022/03/24 16:27:22;;;;;;;8.88;5.70;;;;;;;20.92;30.60;101335.78;10172125;27;65143;-71
2022/03/24 16:32:14;;;;;;;8.73;5.82;;;;;;;20.91;30.88;101336.88;10169581;28;66022;-70
2022/03/24 16:37:07;;;;;;;6.15;5.50;;;;;;;20.91;30.81;101331.38;10169241;27;66382;-72
2022/03/24 16:42:01;;;;;;;8.30;5.32;;;;;;;20.93;30.94;101341.00;10157170;27;66402;-70
2022/03/24 16:46:54;;;;;;;7.18;5.35;;;;;;;20.92;30.83;101339.34;10167861;27;65921;-70
2022/03/24 16:51:46;;;;;;;7.70;5.97;;;;;;;20.96;30.96;101336.84;10168943;27;66465;-70
2022/03/24 16:56:37;;;;;;;8.95;5.43;;;;;;;;;;10169154;28;65745;-70
2022/03/24 17:01:30;;;;;;;10.40;6.00;;;;;;;;;;10168595;27;66068;-71
2022/03/24 17:06:22;;;;;;;8.95;6.10;;;;;;;20.95;31.11;101339.88;10167830;27;66615;-71
2022/03/24 17:11:14;;;;;;;7.07;5.53;;;;;;;;;;10166221;27;64539;-71
2022/03/24 17:16:07;;;;;;;9.85;6.07;;;;;;;21.01;31.52;101336.78;10165651;27;66786;-69
2022/03/24 17:21:00;;;;;;;8.45;5.50;;;;;;;21.02;31.48;101345.88;10164426;27;65550;-70
2022/03/24 17:25:52;;;;;;;10.43;6.03;;;;;;;20.96;31.49;101355.31;10167224;27;66316;-68
2022/03/24 17:30:44;;;;;;;16.23;6.15;;;;;;;20.97;31.61;101345.94;10161020;27;67111;-70
2022/03/24 17:35:36;;;;;;;12.07;6.18;;;;;;;21.00;31.86;101351.66;10164385;27;65928;-69
2022/03/24 17:40:30;;;;;;;13.52;6.07;;;;;;;21.00;31.80;101351.66;10162166;27;65527;-64
2022/03/24 17:45:22;;;;;;;11.57;6.25;;;;;;;21.02;32.07;101349.44;10161718;27;66424;-69
2022/03/24 17:50:15;;;;;;;12.07;6.25;;;;;;;21.07;32.12;101356.81;10165991;27;65636;-73
2022/03/24 17:55:08;;;;;;;11.00;6.05;;;;;;;21.06;32.07;101360.69;10163639;27;66997;-72
2022/03/24 18:00:02;;;;;;;10.82;5.97;;;;;;;21.07;32.14;101365.09;10166014;27;66376;-70
2022/03/24 18:04:55;;;;;;;11.68;5.65;;;;;;;21.13;32.20;101361.97;10165829;27;65645;-75
2022/03/24 18:09:47;;;;;;;10.63;5.35;;;;;;;21.10;32.31;101361.78;10155750;27;66528;-75
2022/03/24 18:14:39;;;;;;;11.40;4.97;;;;;;;21.08;32.27;101367.56;10165759;27;64224;-69
2022/03/24 18:19:32;;;;;;;9.23;4.90;;;;;;;20.98;32.33;101370.44;10167533;27;66424;-68
2022/03/24 18:24:24;;;;;;;8.82;4.93;;;;;;;20.95;32.40;101375.72;10159755;27;65393;-68
2022/03/24 18:29:21;;;;;;;7.00;4.80;;;;;;;20.94;32.33;101374.91;10163170;27;65608;-70
2022/03/24 18:34:13;;;;;;;6.25;4.60;;;;;;;20.91;32.34;101381.00;10158744;27;66195;-69
2022/03/24 18:39:06;;;;;;;5.88;4.40;;;;;;;20.95;32.40;101384.81;10164839;27;66415;-70
2022/03/24 18:43:58;;;;;;;13.82;4.40;;;;;;;21.00;32.58;101383.94;10162954;27;65909;-68
2022/03/24 18:48:50;;;;;;;10.05;4.53;;;;;;;21.09;32.93;101387.69;10152751;27;65516;-75
2022/03/24 18:53:42;;;;;;;6.18;3.88;;;;;;;21.10;32.91;101390.16;10165537;27;65368;-75
2022/03/24 18:58:36;;;;;;;7.05;3.92;;;;;;;21.15;33.03;101390.09;10165321;27;66383;-77
2022/03/24 19:03:28;;;;;;;7.70;4.40;;;;;;;21.12;32.93;101395.41;10159532;27;65792;-75
2022/03/24 19:08:21;;;;;;;8.73;4.50;;;;;;;21.17;33.04;101398.13;10163894;27;66186;-75
2022/03/24 19:13:13;;;;;;;8.73;4.18;;;;;;;21.17;32.89;101398.13;10166330;27;66323;-75
2022/03/24 19:18:09;;;;;;;10.45;4.55;;;;;;;21.18;32.94;101399.75;10163455;27;64711;-74
2022/03/24 19:23:05;;;;;;;7.68;3.85;;;;;;;21.17;32.82;101396.19;10163506;27;65387;-74
2022/03/24 19:27:57;;;;;;;7.00;4.10;;;;;;;21.19;32.80;101399.44;10164566;28;66326;-74
2022/03/24 19:32:49;;;;;;;6.00;3.90;;;;;;;21.18;32.65;101400.59;10156402;27;66428;-76
2022/03/24 19:37:42;;;;;;;7.38;3.85;;;;;;;21.19;32.65;101398.66;10141988;27;65607;-75
2022/03/24 19:42:34;;;;;;;6.57;4.22;;;;;;;21.21;32.60;101401.91;10154668;28;65912;-73
2022/03/24 19:47:26;;;;;;;5.15;4.47;;;;;;;21.19;32.50;101396.69;10167545;28;64703;-72
2022/03/24 19:52:18;;;;;;;7.97;4.18;;;;;;;21.16;32.46;101396.44;10162187;27;66463;-70
2022/03/24 19:57:12;;;;;;;7.10;4.03;;;;;;;21.23;32.55;101405.22;10170386;27;65636;-77
2022/03/24 20:02:04;;;;;;;5.22;4.03;;;;;;;21.19;32.49;101401.41;10170645;27;66695;-75
2022/03/24 20:06:56;;;;;;;8.63;4.45;;;;;;;21.20;32.56;101401.09;10169914;27;66324;-73
2022/03/24 20:11:48;;;;;;;7.75;4.43;;;;;;;21.24;32.46;101401.34;10170957;27;65505;-77
2022/03/24 20:16:43;;;;;;;7.15;4.05;;;;;;;21.31;32.23;101393.53;10164100;27;65627;-76
2022/03/24 20:21:35;;;;;;;5.95;4.10;;;;;;;21.27;32.13;101409.84;10168705;27;66526;-75
2022/03/24 20:26:27;;;;;;;7.60;4.35;;;;;;;21.30;32.29;101412.00;10170409;27;65621;-74
2022/03/24 20:31:19;;;;;;;7.25;4.20;;;;;;;21.29;32.07;101421.41;10168845;27;66402;-73
2022/03/24 20:36:12;;;;;;;8.40;4.30;;;;;;;21.27;32.15;101411.75;10154765;27;65378;-76
2022/03/24 20:41:05;;;;;;;6.50;4.03;;;;;;;21.28;32.15;101418.94;10169434;27;64972;-76
2022/03/24 20:45:57;;;;;;;4.15;3.72;;;;;;;21.25;32.20;101420.34;10169828;27;65271;-77
2022/03/24 20:50:49;;;;;;;5.47;3.67;;;;;;;21.28;32.18;101416.16;10166135;27;66373;-75
2022/03/24 20:55:42;;;;;;;4.82;3.78;;;;;;;21.35;31.83;101426.84;10161179;27;65312;-74
2022/03/24 21:00:34;;;;;;;6.25;3.70;;;;;;;21.37;31.86;101421.88;10143814;28;66420;-79
2022/03/24 21:05:28;;;;;;;6.80;3.88;;;;;;;21.35;31.85;101424.09;10167732;27;66394;-74
2022/03/24 21:10:20;;;;;;;5.93;4.03;;;;;;;21.31;31.95;101426.63;10164674;28;65660;-75
2022/03/24 21:15:16;;;;;;;5.40;3.90;;;;;;;21.29;32.01;101428.84;10168519;27;66282;-73
2022/03/24 21:20:10;;;;;;;4.45;3.80;;;;;;;21.34;31.76;101428.81;10169381;27;66462;-74
2022/03/24 21:25:02;;;;;;;7.05;3.80;;;;;;;21.26;31.83;101429.47;10167492;27;66961;-76
2022/03/24 21:29:57;;;;;;;11.10;4.13;;;;;;;21.34;31.74;101450.06;10169141;27;66557;-74
2022/03/24 21:34:50;;;;;;;6.13;4.10;;;;;;;21.23;31.56;101449.34;10168976;27;66409;-69
2022/03/24 21:39:42;;;;;;;5.75;3.90;;;;;;;21.27;31.62;101448.44;10169623;27;65594;-77
2022/03/24 21:44:34;;;;;;;6.78;4.25;;;;;;;21.28;31.66;101450.09;10167817;27;66460;-75
2022/03/24 21:49:26;;;;;;;5.22;4.13;;;;;;;21.24;31.60;101451.81;10167638;27;65622;-78
2022/03/24 21:54:20;;;;;;;5.95;3.75;;;;;;;21.26;31.48;101449.59;10168484;27;66376;-76
2022/03/24 21:59:12;;;;;;;7.68;4.25;;;;;;;21.20;31.60;101447.16;10167999;27;65624;-76
2022/03/24 22:04:04;;;;;;;5.95;4.18;;;;;;;21.24;31.45;101451.00;10166782;27;65337;-73
2022/03/24 22:08:56;;;;;;;6.95;4.43;;;;;;;21.20;31.43;101447.97;10167229;28;66418;-75
2022/03/24 22:13:50;;;;;;;5.18;4.20;;;;;;;21.25;31.36;101449.88;10168692;28;66159;-76
2022/03/24 22:18:42;;;;;;;5.38;3.78;;;;;;;21.24;31.45;101454.56;10166852;27;65608;-74
2022/03/24 22:23:34;;;;;;;5.07;4.35;;;;;;;21.23;31.27;101457.63;10168097;27;66177;-74
2022/03/24 22:28:26;;;;;;;5.25;4.25;;;;;;;21.24;31.10;101456.50;10167164;27;66862;-74
2022/03/24 22:33:19;;;;;;;5.50;4.47;;;;;;;21.21;31.29;101460.66;10167951;27;65504;-73
2022/03/24 22:38:11;;;;;;;7.10;4.68;;;;;;;21.25;31.16;101463.66;10166779;27;66376;-74
2022/03/24 22:43:04;;;;;;;5.80;4.25;;;;;;;21.23;31.21;101463.94;10167467;27;66414;-74
2022/03/24 22:47:56;;;;;;;6.05;4.97;;;;;;;21.23;31.10;101449.34;10164955;27;66442;-76
2022/03/24 22:52:57;;;;;;;5.55;4.93;;;;;;;21.20;30.83;101460.94;10167193;27;65823;-74
2022/03/24 22:57:49;;;;;;;6.25;4.00;;;;;;;21.20;31.25;101466.47;10166334;27;65502;-76
2022/03/24 23:02:42;;;;;;;6.93;4.57;;;;;;;21.19;31.11;101465.63;10160839;27;66330;-71
2022/03/24 23:07:34;;;;;;;6.93;4.75;;;;;;;21.17;31.14;101461.53;10166891;27;66166;-74
2022/03/24 23:12:28;;;;;;;6.65;4.45;;;;;;;21.19;30.84;101462.88;10165580;27;66882;-76
2022/03/24 23:17:26;;;;;;;6.10;4.90;;;;;;;21.16;30.86;101460.72;10166881;27;65915;-75
2022/03/24 23:22:18;;;;;;;6.65;4.20;;;;;;;21.19;30.99;101464.84;10165622;27;65527;-72
2022/03/24 23:27:10;;;;;;;5.53;5.00;;;;;;;21.16;31.00;101457.97;10166758;27;66302;-74
2022/03/24 23:32:04;;;;;;;6.75;4.35;;;;;;;21.19;30.95;101462.88;10164260;27;66320;-73
2022/03/24 23:36:56;;;;;;;5.55;4.70;;;;;;;21.14;31.00;101460.16;10175366;27;66438;-74
2022/03/24 23:41:55;;;;;;;5.68;4.53;;;;;;;21.13;30.92;101463.19;10166015;27;65582;-74
2022/03/24 23:46:48;;;;;;;7.05;4.57;;;;;;;21.14;30.93;101465.66;10167730;27;65603;-74
2022/03/24 23:51:41;;;;;;;5.70;4.70;;;;;;;21.13;30.79;101466.78;10156789;27;66402;-74
2022/03/24 23:56:33;;;;;;;5.18;4.68;;;;;;;21.16;30.82;101469.00;10164394;28;66275;-74
